createdAt,value
2023-05-27T00:00:35.408Z,16.79
2023-05-27T00:03:03.549Z,16.77
2023-05-27T00:05:31.764Z,16.79
2023-05-27T00:07:59.802Z,16.78
2023-05-27T00:10:27.925Z,16.79
2023-05-27T00:12:56.125Z,16.74
2023-05-27T00:15:24.326Z,16.73
2023-05-27T00:17:52.507Z,16.72
2023-05-27T00:20:22.121Z,16.72
2023-05-27T00:22:52.092Z,16.80
2023-05-27T00:25:23.100Z,16.77
2023-05-27T00:27:51.278Z,16.82
2023-05-27T00:30:19.352Z,16.86
2023-05-27T00:32:47.450Z,16.87
2023-05-27T00:35:15.587Z,16.87
2023-05-27T00:37:43.881Z,16.87
2023-05-27T00:40:12.378Z,16.88
2023-05-27T00:42:40.533Z,16.91
2023-05-27T00:45:09.741Z,16.92
2023-05-27T00:47:37.902Z,16.93
2023-05-27T00:50:12.233Z,16.95
2023-05-27T00:52:40.290Z,16.97
2023-05-27T00:55:09.170Z,16.95
2023-05-27T00:57:37.416Z,16.97
2023-05-27T01:00:09.595Z,16.98
2023-05-27T01:02:38.614Z,16.93
2023-05-27T01:05:07.093Z,16.92
2023-05-27T01:07:59.454Z,16.86
2023-05-27T01:10:38.446Z,16.79
2023-05-27T01:13:28.237Z,16.68
2023-05-27T01:15:57.042Z,16.66
2023-05-27T01:18:25.671Z,16.64
2023-05-27T01:20:54.164Z,16.66
2023-05-27T01:23:22.377Z,16.64
2023-05-27T01:25:50.862Z,16.60
2023-05-27T01:28:19.233Z,16.63
2023-05-27T01:30:47.322Z,16.59
2023-05-27T01:33:18.544Z,16.62
2023-05-27T01:35:53.274Z,16.55
2023-05-27T01:38:22.916Z,16.53
2023-05-27T01:40:51.690Z,16.52
2023-05-27T01:43:20.084Z,16.58
2023-05-27T01:45:48.226Z,16.59
2023-05-27T01:48:16.488Z,16.62
2023-05-27T01:50:44.693Z,16.63
2023-05-27T01:53:14.218Z,16.59
2023-05-27T01:55:42.293Z,16.58
2023-05-27T01:58:10.360Z,16.54
2023-05-27T02:00:39.079Z,16.51
2023-05-27T02:03:07.381Z,16.46
2023-05-27T02:05:35.699Z,16.45
2023-05-27T02:08:04.274Z,16.42
2023-05-27T02:10:32.511Z,16.40
2023-05-27T02:13:00.593Z,16.34
2023-05-27T02:15:28.813Z,16.30
2023-05-27T02:18:00.947Z,16.26
2023-05-27T02:20:29.064Z,16.23
2023-05-27T02:22:57.221Z,16.19
2023-05-27T02:25:25.211Z,16.16
2023-05-27T02:27:54.766Z,16.13
2023-05-27T02:30:22.902Z,16.06
2023-05-27T02:32:50.990Z,16.01
2023-05-27T02:35:19.218Z,15.93
2023-05-27T02:37:47.312Z,15.90
2023-05-27T02:40:26.804Z,15.83
2023-05-27T02:42:54.883Z,15.79
2023-05-27T02:45:22.982Z,15.75
2023-05-27T02:47:51.052Z,15.69
2023-05-27T02:50:19.234Z,15.67
2023-05-27T02:52:47.386Z,15.68
2023-05-27T02:55:15.413Z,15.69
2023-05-27T02:57:43.617Z,15.67
2023-05-27T03:00:12.444Z,15.65
2023-05-27T03:02:40.574Z,15.58
2023-05-27T03:05:09.472Z,15.55
2023-05-27T03:07:40.593Z,15.51
2023-05-27T03:10:09.032Z,15.40
2023-05-27T03:12:37.065Z,15.44
2023-05-27T03:15:05.310Z,15.48
2023-05-27T03:17:33.488Z,15.48
2023-05-27T03:20:01.682Z,15.44
2023-05-27T03:22:29.720Z,15.43
2023-05-27T03:24:57.834Z,15.28
2023-05-27T03:27:26.101Z,15.17
2023-05-27T03:29:54.150Z,15.10
2023-05-27T03:32:22.144Z,15.04
2023-05-27T03:34:50.295Z,15.01
2023-05-27T03:37:18.332Z,14.94
2023-05-27T03:39:46.472Z,14.90
2023-05-27T03:42:14.645Z,14.85
2023-05-27T03:44:42.644Z,14.80
2023-05-27T03:47:10.823Z,14.78
2023-05-27T03:49:38.921Z,14.80
2023-05-27T03:52:07.656Z,14.88
2023-05-27T03:54:35.849Z,14.96
2023-05-27T03:57:04.024Z,14.91
2023-05-27T03:59:32.357Z,14.80
2023-05-27T04:02:00.541Z,14.70
2023-05-27T04:04:28.708Z,14.64
2023-05-27T04:06:57.881Z,14.61
2023-05-27T04:09:25.991Z,14.57
2023-05-27T04:11:54.004Z,14.54
2023-05-27T04:14:22.430Z,14.54
2023-05-27T04:16:51.197Z,14.51
2023-05-27T04:19:20.526Z,14.55
2023-05-27T04:21:48.705Z,14.56
2023-05-27T04:24:16.862Z,14.56
2023-05-27T04:26:45.358Z,14.57
2023-05-27T04:29:14.380Z,14.55
2023-05-27T04:31:42.630Z,14.55
2023-05-27T04:34:10.696Z,14.55
2023-05-27T04:36:38.939Z,14.57
2023-05-27T04:39:07.053Z,14.59
2023-05-27T04:41:35.324Z,14.61
2023-05-27T04:44:03.424Z,14.62
2023-05-27T04:46:31.608Z,14.64
2023-05-27T04:48:59.778Z,14.64
2023-05-27T04:51:27.815Z,14.67
2023-05-27T04:53:56.704Z,14.68
2023-05-27T04:56:24.808Z,14.70
2023-05-27T05:01:23.320Z,14.74
2023-05-27T05:03:55.089Z,14.77
2023-05-27T05:06:24.675Z,14.79
2023-05-27T05:08:52.823Z,14.83
2023-05-27T05:11:20.823Z,14.86
2023-05-27T05:13:48.900Z,14.88
2023-05-27T05:16:17.008Z,14.90
2023-05-27T05:18:45.298Z,14.93
2023-05-27T05:21:13.381Z,14.94
2023-05-27T05:23:42.590Z,14.93
2023-05-27T05:26:10.678Z,14.96
2023-05-27T05:28:38.762Z,15.01
2023-05-27T05:31:06.814Z,15.05
2023-05-27T05:33:35.009Z,15.08
2023-05-27T05:36:04.039Z,15.14
2023-05-27T05:38:32.522Z,15.21
2023-05-27T05:41:00.594Z,15.26
2023-05-27T05:43:29.353Z,15.32
2023-05-27T05:45:57.585Z,15.36
2023-05-27T05:48:26.058Z,15.43
2023-05-27T05:50:54.838Z,15.45
2023-05-27T05:53:23.313Z,15.50
2023-05-27T05:55:52.001Z,15.53
2023-05-27T05:58:20.732Z,15.57
2023-05-27T06:00:49.774Z,15.64
2023-05-27T06:03:18.133Z,15.68
2023-05-27T06:05:46.142Z,15.74
2023-05-27T06:08:14.264Z,15.75
2023-05-27T06:10:42.396Z,15.78
2023-05-27T06:13:13.440Z,15.81
2023-05-27T06:15:41.485Z,15.83
2023-05-27T06:18:09.655Z,15.88
2023-05-27T06:20:37.791Z,15.90
2023-05-27T06:23:05.918Z,15.95
2023-05-27T06:25:33.981Z,16.02
2023-05-27T06:28:01.999Z,16.08
2023-05-27T06:30:30.142Z,16.12
2023-05-27T06:32:58.828Z,16.27
2023-05-27T06:35:27.039Z,16.34
2023-05-27T06:37:55.004Z,16.46
2023-05-27T06:40:23.078Z,16.52
2023-05-27T06:42:51.186Z,16.57
2023-05-27T06:45:19.192Z,16.62
2023-05-27T06:47:47.233Z,16.69
2023-05-27T06:50:15.301Z,16.77
2023-05-27T06:52:43.500Z,16.77
2023-05-27T06:55:11.792Z,16.78
2023-05-27T06:57:39.909Z,16.83
2023-05-27T07:00:08.688Z,16.87
2023-05-27T07:02:37.003Z,16.95
2023-05-27T07:05:05.341Z,17.03
2023-05-27T07:07:33.520Z,17.13
2023-05-27T07:10:02.052Z,17.21
2023-05-27T07:12:30.092Z,17.26
2023-05-27T07:14:58.243Z,17.34
2023-05-27T07:17:26.529Z,17.43
2023-05-27T07:19:54.578Z,17.57
2023-05-27T07:22:22.829Z,17.66
2023-05-27T07:24:50.895Z,17.76
2023-05-27T07:27:19.037Z,17.86
2023-05-27T07:29:47.307Z,17.98
2023-05-27T07:32:15.431Z,18.07
2023-05-27T07:34:43.624Z,18.10
2023-05-27T07:37:11.655Z,18.20
2023-05-27T07:39:39.857Z,18.31
2023-05-27T07:42:08.083Z,18.46
2023-05-27T07:44:36.277Z,18.57
2023-05-27T07:47:04.646Z,18.71
2023-05-27T07:49:32.899Z,18.85
2023-05-27T07:52:00.935Z,18.95
2023-05-27T07:54:31.641Z,19.12
2023-05-27T07:57:00.482Z,19.26
2023-05-27T07:59:28.788Z,19.36
2023-05-27T08:01:56.884Z,19.50
2023-05-27T08:04:25.679Z,19.61
2023-05-27T08:06:54.351Z,19.77
2023-05-27T08:09:22.791Z,19.94
2023-05-27T08:11:50.974Z,20.10
2023-05-27T08:14:19.241Z,20.20
2023-05-27T08:16:47.327Z,20.32
2023-05-27T08:19:15.535Z,20.46
2023-05-27T08:21:43.629Z,20.42
2023-05-27T08:24:12.133Z,20.47
2023-05-27T08:26:40.184Z,20.53
2023-05-27T08:29:08.215Z,20.64
2023-05-27T08:31:36.301Z,20.72
2023-05-27T08:34:05.351Z,20.77
2023-05-27T08:36:34.279Z,20.86
2023-05-27T08:39:02.540Z,20.79
2023-05-27T08:41:30.640Z,20.99
2023-05-27T08:44:16.338Z,21.14
2023-05-27T08:46:49.121Z,21.18
2023-05-27T08:49:17.422Z,21.25
2023-05-27T08:51:45.467Z,21.42
2023-05-27T08:54:13.558Z,21.52
2023-05-27T08:56:42.104Z,21.62
2023-05-27T08:59:10.637Z,21.75
2023-05-27T09:01:38.834Z,21.94
2023-05-27T09:04:07.087Z,21.97
2023-05-27T09:06:35.190Z,22.05
2023-05-27T09:09:03.211Z,22.13
2023-05-27T09:11:33.165Z,22.22
2023-05-27T09:14:01.333Z,22.34
2023-05-27T09:16:29.591Z,22.44
2023-05-27T09:18:57.741Z,22.60
2023-05-27T09:21:31.426Z,22.79
2023-05-27T09:24:00.743Z,22.88
2023-05-27T09:26:33.392Z,23.08
2023-05-27T09:29:05.486Z,23.21
2023-05-27T09:31:33.573Z,23.24
2023-05-27T09:34:01.778Z,23.37
2023-05-27T09:36:30.190Z,23.44
2023-05-27T09:38:58.700Z,23.52
2023-05-27T09:41:29.665Z,23.58
2023-05-27T09:43:58.459Z,23.70
2023-05-27T09:46:26.652Z,23.84
2023-05-27T09:48:56.664Z,23.99
2023-05-27T09:51:24.810Z,24.03
2023-05-27T09:53:53.318Z,24.11
2023-05-27T09:56:21.363Z,24.23
2023-05-27T09:58:49.434Z,24.27
2023-05-27T10:01:19.622Z,24.41
2023-05-27T10:03:48.129Z,24.51
2023-05-27T10:06:16.709Z,24.59
2023-05-27T10:08:45.196Z,24.63
2023-05-27T10:11:13.674Z,24.77
2023-05-27T10:13:51.679Z,24.85
2023-05-27T10:16:24.251Z,25.01
2023-05-27T10:18:56.274Z,25.12
2023-05-27T10:21:26.350Z,25.25
2023-05-27T10:24:01.501Z,25.32
2023-05-27T10:26:40.428Z,25.41
2023-05-27T10:29:12.530Z,25.54
2023-05-27T10:31:53.146Z,25.55
2023-05-27T10:34:22.077Z,25.45
2023-05-27T10:37:01.179Z,25.50
2023-05-27T10:39:30.191Z,25.59
2023-05-27T10:41:59.526Z,25.75
2023-05-27T10:44:38.428Z,25.76
2023-05-27T10:47:13.944Z,25.77
2023-05-27T10:49:43.697Z,25.83
2023-05-27T10:52:15.165Z,25.84
2023-05-27T10:54:48.281Z,25.89
2023-05-27T10:57:16.463Z,25.84
2023-05-27T10:59:51.983Z,25.95
2023-05-27T11:02:20.448Z,26.08
2023-05-27T11:04:49.413Z,26.13
2023-05-27T11:07:21.206Z,26.03
2023-05-27T11:09:50.789Z,26.14
2023-05-27T11:12:19.600Z,26.16
2023-05-27T11:14:48.744Z,26.18
2023-05-27T11:17:17.170Z,26.25
2023-05-27T11:19:46.839Z,26.29
2023-05-27T11:22:16.391Z,26.30
2023-05-27T11:24:44.768Z,26.42
2023-05-27T11:27:15.489Z,26.48
2023-05-27T11:29:52.343Z,26.42
2023-05-27T11:32:20.618Z,26.34
2023-05-27T11:34:53.367Z,26.33
2023-05-27T11:37:21.490Z,26.33
2023-05-27T11:39:53.818Z,26.40
2023-05-27T11:42:25.905Z,26.50
2023-05-27T11:44:57.376Z,26.58
2023-05-27T11:47:25.658Z,26.61
2023-05-27T11:49:53.803Z,26.66
2023-05-27T11:52:34.282Z,26.65
2023-05-27T11:55:02.473Z,26.70
2023-05-27T11:57:33.342Z,26.73
2023-05-27T12:00:04.014Z,26.81
2023-05-27T12:02:32.299Z,26.84
2023-05-27T12:05:00.787Z,26.91
2023-05-27T12:07:28.922Z,26.89
2023-05-27T12:13:42.693Z,26.79
2023-05-27T12:16:47.790Z,26.85
2023-05-27T12:19:16.911Z,26.78
2023-05-27T12:21:45.068Z,26.81
2023-05-27T12:24:13.267Z,26.81
2023-05-27T12:26:43.177Z,26.77
2023-05-27T12:29:11.381Z,26.83
2023-05-27T12:31:39.694Z,26.78
2023-05-27T12:34:07.995Z,26.85
2023-05-27T12:36:36.096Z,26.88
2023-05-27T12:39:04.416Z,26.88
2023-05-27T12:41:32.611Z,26.87
2023-05-27T12:44:01.602Z,26.88
2023-05-27T12:46:29.760Z,27.01
2023-05-27T12:48:58.958Z,26.95
2023-05-27T12:51:27.335Z,27.01
2023-05-27T12:53:55.432Z,27.12
2023-05-27T12:56:24.402Z,27.30
2023-05-27T12:58:52.515Z,27.41
2023-05-27T13:01:21.112Z,27.37
2023-05-27T13:03:49.522Z,27.43
2023-05-27T13:06:22.404Z,27.38
2023-05-27T13:08:52.081Z,27.42
2023-05-27T13:11:21.002Z,27.34
2023-05-27T13:13:49.182Z,27.35
2023-05-27T13:16:17.415Z,27.26
2023-05-27T13:18:45.789Z,27.32
2023-05-27T13:21:14.203Z,27.38
2023-05-27T13:23:56.659Z,27.45
2023-05-27T13:26:24.863Z,27.43
2023-05-27T13:28:54.261Z,27.31
2023-05-27T13:31:25.801Z,27.21
2023-05-27T13:33:54.099Z,27.17
2023-05-27T13:36:24.691Z,27.15
2023-05-27T13:38:52.793Z,27.12
2023-05-27T13:41:21.060Z,27.03
2023-05-27T13:43:49.132Z,27.01
2023-05-27T13:46:17.386Z,27.00
2023-05-27T13:48:45.457Z,26.96
2023-05-27T13:51:13.897Z,26.90
2023-05-27T13:53:42.891Z,26.87
2023-05-27T13:56:11.149Z,26.63
2023-05-27T13:58:39.270Z,26.53
2023-05-27T14:01:07.607Z,26.45
2023-05-27T14:03:36.237Z,26.35
2023-05-27T14:06:04.538Z,26.23
2023-05-27T14:08:34.180Z,26.16
2023-05-27T14:11:02.664Z,26.06
2023-05-27T14:13:38.976Z,25.91
2023-05-27T14:16:07.546Z,25.88
2023-05-27T14:18:36.633Z,25.75
2023-05-27T14:21:23.284Z,25.67
2023-05-27T14:23:52.472Z,25.58
2023-05-27T14:26:20.452Z,25.49
2023-05-27T14:28:48.988Z,25.41
2023-05-27T14:31:17.205Z,25.26
2023-05-27T14:33:45.616Z,25.10
2023-05-27T14:36:13.795Z,25.00
2023-05-27T14:38:42.380Z,24.86
2023-05-27T14:41:13.837Z,24.76
2023-05-27T14:43:42.288Z,24.75
2023-05-27T14:46:12.523Z,24.69
2023-05-27T14:48:41.054Z,24.61
2023-05-27T14:51:09.538Z,24.54
2023-05-27T14:53:38.398Z,24.50
2023-05-27T14:56:07.087Z,24.43
2023-05-27T14:58:37.931Z,24.41
2023-05-27T15:01:06.126Z,24.34
2023-05-27T15:03:34.331Z,24.30
2023-05-27T15:06:03.071Z,24.20
2023-05-27T15:08:31.899Z,24.18
2023-05-27T15:11:00.458Z,24.15
2023-05-27T15:13:28.768Z,24.14
2023-05-27T15:15:56.914Z,24.09
2023-05-27T15:18:25.370Z,24.05
2023-05-27T15:20:53.772Z,23.94
2023-05-27T15:23:22.621Z,23.92
2023-05-27T15:25:50.891Z,23.89
2023-05-27T15:28:19.770Z,23.84
2023-05-27T15:30:48.324Z,23.81
2023-05-27T15:33:38.666Z,23.77
2023-05-27T15:36:13.939Z,23.74
2023-05-27T15:38:42.124Z,23.68
2023-05-27T15:41:10.188Z,23.66
2023-05-27T15:43:38.272Z,23.62
2023-05-27T15:46:12.069Z,23.60
2023-05-27T15:48:47.470Z,23.60
2023-05-27T15:51:16.339Z,23.57
2023-05-27T15:53:44.513Z,23.54
2023-05-27T15:56:13.810Z,23.54
2023-05-27T15:58:44.959Z,23.50
2023-05-27T16:01:13.080Z,23.47
2023-05-27T16:03:41.360Z,23.44
2023-05-27T16:06:10.604Z,23.42
2023-05-27T16:08:40.042Z,23.40
2023-05-27T16:11:08.864Z,23.36
2023-05-27T16:13:38.972Z,23.33
2023-05-27T16:16:07.483Z,23.30
2023-05-27T16:18:37.372Z,23.31
2023-05-27T16:21:06.111Z,23.27
2023-05-27T16:23:34.587Z,23.21
2023-05-27T16:26:02.686Z,23.20
2023-05-27T16:28:30.827Z,23.18
2023-05-27T16:30:59.089Z,23.17
2023-05-27T16:33:28.350Z,23.15
2023-05-27T16:35:58.836Z,23.12
2023-05-27T16:38:27.780Z,23.10
2023-05-27T16:40:55.907Z,23.08
2023-05-27T16:43:25.687Z,23.08
2023-05-27T16:45:56.569Z,23.06
2023-05-27T16:48:24.850Z,23.04
2023-05-27T16:50:53.156Z,23.04
2023-05-27T16:53:21.648Z,23.03
2023-05-27T16:55:50.956Z,23.02
2023-05-27T16:58:19.431Z,22.99
2023-05-27T17:00:59.917Z,22.99
2023-05-27T17:03:31.526Z,22.96
2023-05-27T17:06:04.862Z,22.96
2023-05-27T17:08:53.716Z,22.93
2023-05-27T17:11:22.859Z,22.92
2023-05-27T17:13:50.896Z,22.90
2023-05-27T17:16:20.257Z,22.90
2023-05-27T17:18:50.319Z,22.88
2023-05-27T17:21:18.604Z,22.86
2023-05-27T17:23:47.190Z,22.87
2023-05-27T17:26:15.744Z,22.86
2023-05-27T17:28:43.968Z,22.90
2023-05-27T17:31:12.162Z,22.91
2023-05-27T17:33:42.352Z,22.92
2023-05-27T17:36:10.687Z,22.89
2023-05-27T17:38:38.735Z,22.85
2023-05-27T17:41:09.146Z,22.78
2023-05-27T17:43:38.095Z,22.75
2023-05-27T17:46:07.156Z,22.73
2023-05-27T17:48:35.442Z,22.71
2023-05-27T17:51:06.463Z,22.67
2023-05-27T17:53:37.600Z,22.65
2023-05-27T17:56:05.684Z,22.62
2023-05-27T17:58:33.743Z,22.58
2023-05-27T18:01:03.592Z,22.55
2023-05-27T18:03:37.160Z,22.53
2023-05-27T18:06:07.757Z,22.48
2023-05-27T18:08:36.576Z,22.45
2023-05-27T18:11:04.610Z,22.42
2023-05-27T18:13:32.696Z,22.40
2023-05-27T18:16:00.795Z,22.35
2023-05-27T18:18:28.865Z,22.32
2023-05-27T18:20:58.326Z,22.26
2023-05-27T18:23:26.441Z,22.25
2023-05-27T18:25:54.456Z,22.23
2023-05-27T18:28:22.659Z,22.18
2023-05-27T18:30:50.940Z,22.16
2023-05-27T18:33:19.423Z,22.12
2023-05-27T18:35:47.608Z,22.03
2023-05-27T18:38:15.756Z,21.96
2023-05-27T18:40:43.766Z,21.92
2023-05-27T18:43:12.110Z,21.88
2023-05-27T18:45:59.344Z,21.86
2023-05-27T18:48:28.260Z,21.84
2023-05-27T18:50:57.141Z,21.82
2023-05-27T18:53:25.961Z,21.77
2023-05-27T18:55:54.623Z,21.74
2023-05-27T18:58:22.966Z,21.67
2023-05-27T19:00:51.430Z,21.61
2023-05-27T19:03:21.243Z,21.60
2023-05-27T19:05:49.356Z,21.55
2023-05-27T19:08:18.029Z,21.50
2023-05-27T19:10:46.405Z,21.44
2023-05-27T19:13:14.528Z,21.43
2023-05-27T19:15:42.726Z,21.39
2023-05-27T19:18:11.949Z,21.31
2023-05-27T19:20:43.394Z,21.28
2023-05-27T19:23:11.806Z,21.23
2023-05-27T19:25:40.028Z,21.17
2023-05-27T19:28:08.148Z,21.10
2023-05-27T19:30:36.190Z,21.01
2023-05-27T19:33:04.507Z,20.89
2023-05-27T19:35:32.745Z,20.78
2023-05-27T19:38:00.837Z,20.69
2023-05-27T19:40:28.903Z,20.59
2023-05-27T19:42:56.918Z,20.51
2023-05-27T19:45:24.930Z,20.40
2023-05-27T19:47:53.698Z,20.28
2023-05-27T19:50:21.806Z,20.18
2023-05-27T19:52:49.831Z,20.05
2023-05-27T19:55:18.382Z,20.02
2023-05-27T19:57:46.397Z,19.96
2023-05-27T20:00:14.774Z,19.91
2023-05-27T20:02:42.923Z,19.85
2023-05-27T20:05:11.795Z,19.73
2023-05-27T20:07:40.103Z,19.65
2023-05-27T20:10:10.034Z,19.60
2023-05-27T20:12:47.809Z,19.53
2023-05-27T20:15:16.399Z,19.44
2023-05-27T20:17:44.583Z,19.36
2023-05-27T20:20:13.437Z,19.28
2023-05-27T20:22:41.745Z,19.22
2023-05-27T20:25:10.332Z,19.24
2023-05-27T20:27:38.429Z,19.19
2023-05-27T20:30:06.872Z,19.12
2023-05-27T20:32:35.250Z,19.00
2023-05-27T20:35:04.251Z,18.91
2023-05-27T20:37:32.794Z,18.89
2023-05-27T20:40:00.799Z,18.84
2023-05-27T20:42:28.825Z,18.78
2023-05-27T20:44:56.961Z,18.70
2023-05-27T20:47:25.148Z,18.64
2023-05-27T20:49:53.289Z,18.54
2023-05-27T20:52:21.362Z,18.50
2023-05-27T20:54:49.366Z,18.47
2023-05-27T20:57:17.534Z,18.40
2023-05-27T20:59:45.656Z,18.36
2023-05-27T21:02:14.875Z,18.28
2023-05-27T21:04:45.749Z,18.22
2023-05-27T21:07:13.774Z,18.17
2023-05-27T21:09:42.111Z,18.11
2023-05-27T21:12:11.308Z,18.07
2023-05-27T21:14:39.686Z,18.02
2023-05-27T21:17:07.958Z,18.00
2023-05-27T21:19:36.079Z,17.97
2023-05-27T21:22:05.101Z,17.97
2023-05-27T21:24:33.118Z,17.96
2023-05-27T21:27:01.381Z,17.94
2023-05-27T21:29:29.358Z,17.94
2023-05-27T21:31:57.848Z,17.96
2023-05-27T21:34:26.017Z,17.95
2023-05-27T21:36:54.040Z,17.92
2023-05-27T21:39:22.499Z,17.86
2023-05-27T21:41:50.535Z,17.84
2023-05-27T21:44:18.759Z,17.82
2023-05-27T21:46:46.737Z,17.80
2023-05-27T21:49:14.918Z,17.76
2023-05-27T21:51:43.005Z,17.73
2023-05-27T21:54:11.046Z,17.68
2023-05-27T21:56:39.363Z,17.64
2023-05-27T21:59:07.870Z,17.60
2023-05-27T22:01:35.997Z,17.56
2023-05-27T22:04:04.007Z,17.52
2023-05-27T22:06:34.804Z,17.46
2023-05-27T22:09:02.899Z,17.41
2023-05-27T22:11:30.924Z,17.36
2023-05-27T22:13:58.936Z,17.34
2023-05-27T22:16:27.042Z,17.32
2023-05-27T22:18:55.633Z,17.30
2023-05-27T22:21:29.694Z,17.29
2023-05-27T22:23:58.332Z,17.25
2023-05-27T22:26:26.382Z,17.23
2023-05-27T22:28:54.512Z,17.21
2023-05-27T22:31:22.936Z,17.15
2023-05-27T22:33:51.020Z,17.09
2023-05-27T22:36:18.959Z,17.03
2023-05-27T22:38:47.078Z,16.99
2023-05-27T22:41:15.077Z,16.90
2023-05-27T22:43:43.306Z,16.84
2023-05-27T22:46:13.578Z,16.79
2023-05-27T22:48:41.804Z,16.75
2023-05-27T22:51:09.912Z,16.71
2023-05-27T22:53:44.498Z,16.66
2023-05-27T22:56:13.576Z,16.61
2023-05-27T22:58:41.870Z,16.58
2023-05-27T23:01:09.965Z,16.52
2023-05-27T23:03:38.344Z,16.48
2023-05-27T23:06:07.816Z,16.45
2023-05-27T23:08:36.152Z,16.39
2023-05-27T23:11:04.692Z,16.34
2023-05-27T23:13:32.831Z,16.32
2023-05-27T23:16:02.705Z,16.29
2023-05-27T23:18:30.764Z,16.25
2023-05-27T23:20:59.698Z,16.22
2023-05-27T23:23:27.715Z,16.23
2023-05-27T23:25:55.839Z,16.23
2023-05-27T23:28:24.108Z,16.20
2023-05-27T23:30:54.119Z,16.14
2023-05-27T23:33:22.370Z,16.08
2023-05-27T23:35:50.383Z,16.04
2023-05-27T23:38:18.545Z,16.03
2023-05-27T23:40:46.761Z,16.00
2023-05-27T23:43:14.790Z,15.98
2023-05-27T23:45:42.806Z,15.95
2023-05-27T23:48:10.958Z,15.92
2023-05-27T23:50:39.149Z,15.89
2023-05-27T23:53:07.419Z,15.93
2023-05-27T23:55:35.382Z,15.90
2023-05-27T23:58:03.364Z,15.82
